sensor_id;sensor_type;location;lat;lon;timestamp;P1;durP1;ratioP1;P2;durP2;ratioP2
3845;SDS011;1938;50.812;7.738;2024-02-15T00:00:19;13.60;;;6.30;;
3845;SDS011;1938;50.812;7.738;2024-02-15T00:02:45;10.43;;;5.50;;
3845;SDS011;1938;50.812;7.738;2024-02-15T00:05:12;13.00;;;6.00;;
3845;SDS011;1938;50.812;7.738;2024-02-15T00:07:39;15.60;;;6.97;;
3845;SDS011;1938;50.812;7.738;2024-02-15T00:10:05;14.27;;;6.17;;
3845;SDS011;1938;50.812;7.738;2024-02-15T00:12:31;17.20;;;8.47;;
3845;SDS011;1938;50.812;7.738;2024-02-15T00:14:57;14.60;;;7.20;;
3845;SDS011;1938;50.812;7.738;2024-02-15T00:17:23;12.90;;;7.30;;
3845;SDS011;1938;50.812;7.738;2024-02-15T00:19:50;12.60;;;7.20;;
3845;SDS011;1938;50.812;7.738;2024-02-15T00:22:15;15.23;;;7.63;;
3845;SDS011;1938;50.812;7.738;2024-02-15T00:24:41;15.73;;;6.53;;
3845;SDS011;1938;50.812;7.738;2024-02-15T00:27:10;13.83;;;7.73;;
3845;SDS011;1938;50.812;7.738;2024-02-15T00:29:36;13.53;;;7.40;;
3845;SDS011;1938;50.812;7.738;2024-02-15T00:32:02;14.10;;;8.53;;
3845;SDS011;1938;50.812;7.738;2024-02-15T00:34:28;14.90;;;6.90;;
3845;SDS011;1938;50.812;7.738;2024-02-15T00:36:54;14.50;;;7.23;;
3845;SDS011;1938;50.812;7.738;2024-02-15T00:39:19;13.30;;;7.77;;
3845;SDS011;1938;50.812;7.738;2024-02-15T00:41:45;22.93;;;8.07;;
3845;SDS011;1938;50.812;7.738;2024-02-15T00:44:12;14.37;;;7.77;;
3845;SDS011;1938;50.812;7.738;2024-02-15T00:46:38;12.70;;;7.10;;
3845;SDS011;1938;50.812;7.738;2024-02-15T00:49:04;12.73;;;7.37;;
3845;SDS011;1938;50.812;7.738;2024-02-15T00:51:32;11.83;;;7.00;;
3845;SDS011;1938;50.812;7.738;2024-02-15T00:53:59;16.07;;;6.53;;
3845;SDS011;1938;50.812;7.738;2024-02-15T00:56:26;20.63;;;7.67;;
3845;SDS011;1938;50.812;7.738;2024-02-15T00:58:52;12.00;;;7.03;;
3845;SDS011;1938;50.812;7.738;2024-02-15T01:01:18;17.10;;;8.77;;
3845;SDS011;1938;50.812;7.738;2024-02-15T01:03:43;18.13;;;6.93;;
3845;SDS011;1938;50.812;7.738;2024-02-15T01:06:09;13.23;;;8.23;;
3845;SDS011;1938;50.812;7.738;2024-02-15T01:08:34;13.57;;;6.93;;
3845;SDS011;1938;50.812;7.738;2024-02-15T01:11:01;14.43;;;6.93;;
3845;SDS011;1938;50.812;7.738;2024-02-15T01:13:27;14.43;;;7.90;;
3845;SDS011;1938;50.812;7.738;2024-02-15T01:15:52;15.40;;;7.97;;
3845;SDS011;1938;50.812;7.738;2024-02-15T01:18:18;14.40;;;7.60;;
3845;SDS011;1938;50.812;7.738;2024-02-15T01:20:44;16.23;;;6.90;;
3845;SDS011;1938;50.812;7.738;2024-02-15T01:23:10;12.80;;;7.43;;
3845;SDS011;1938;50.812;7.738;2024-02-15T01:25:35;16.00;;;8.17;;
3845;SDS011;1938;50.812;7.738;2024-02-15T01:28:01;17.83;;;7.10;;
3845;SDS011;1938;50.812;7.738;2024-02-15T01:30:28;15.30;;;7.80;;
3845;SDS011;1938;50.812;7.738;2024-02-15T01:32:54;15.40;;;7.87;;
3845;SDS011;1938;50.812;7.738;2024-02-15T01:35:19;14.93;;;7.50;;
3845;SDS011;1938;50.812;7.738;2024-02-15T01:37:45;21.07;;;8.00;;
3845;SDS011;1938;50.812;7.738;2024-02-15T01:40:12;13.83;;;6.90;;
3845;SDS011;1938;50.812;7.738;2024-02-15T01:42:38;15.00;;;7.53;;
3845;SDS011;1938;50.812;7.738;2024-02-15T01:45:04;13.47;;;8.00;;
3845;SDS011;1938;50.812;7.738;2024-02-15T01:47:30;14.77;;;6.73;;
3845;SDS011;1938;50.812;7.738;2024-02-15T01:49:56;14.53;;;7.57;;
3845;SDS011;1938;50.812;7.738;2024-02-15T01:52:22;11.67;;;6.90;;
3845;SDS011;1938;50.812;7.738;2024-02-15T01:54:49;18.57;;;7.47;;
3845;SDS011;1938;50.812;7.738;2024-02-15T01:57:17;14.00;;;8.27;;
3845;SDS011;1938;50.812;7.738;2024-02-15T01:59:46;12.87;;;7.77;;
3845;SDS011;1938;50.812;7.738;2024-02-15T02:02:12;18.33;;;7.47;;
3845;SDS011;1938;50.812;7.738;2024-02-15T02:04:40;21.33;;;8.23;;
3845;SDS011;1938;50.812;7.738;2024-02-15T02:07:07;27.23;;;9.30;;
3845;SDS011;1938;50.812;7.738;2024-02-15T02:09:32;15.63;;;7.83;;
3845;SDS011;1938;50.812;7.738;2024-02-15T02:11:58;19.33;;;8.70;;
3845;SDS011;1938;50.812;7.738;2024-02-15T02:14:25;15.90;;;7.23;;
3845;SDS011;1938;50.812;7.738;2024-02-15T02:16:50;17.40;;;7.67;;
3845;SDS011;1938;50.812;7.738;2024-02-15T02:19:17;16.40;;;7.33;;
3845;SDS011;1938;50.812;7.738;2024-02-15T02:21:43;16.00;;;6.97;;
3845;SDS011;1938;50.812;7.738;2024-02-15T02:24:13;14.17;;;7.00;;
3845;SDS011;1938;50.812;7.738;2024-02-15T02:26:42;22.57;;;7.27;;
3845;SDS011;1938;50.812;7.738;2024-02-15T02:29:08;18.50;;;7.20;;
3845;SDS011;1938;50.812;7.738;2024-02-15T02:31:35;16.33;;;8.20;;
3845;SDS011;1938;50.812;7.738;2024-02-15T02:34:01;18.83;;;7.43;;
3845;SDS011;1938;50.812;7.738;2024-02-15T02:36:27;13.63;;;7.43;;
3845;SDS011;1938;50.812;7.738;2024-02-15T02:38:54;14.63;;;6.77;;
3845;SDS011;1938;50.812;7.738;2024-02-15T02:41:20;21.83;;;7.33;;
3845;SDS011;1938;50.812;7.738;2024-02-15T02:43:46;17.43;;;6.73;;
3845;SDS011;1938;50.812;7.738;2024-02-15T02:46:12;14.03;;;6.03;;
3845;SDS011;1938;50.812;7.738;2024-02-15T02:48:40;17.50;;;7.17;;
3845;SDS011;1938;50.812;7.738;2024-02-15T02:51:07;14.80;;;7.70;;
3845;SDS011;1938;50.812;7.738;2024-02-15T02:53:32;14.27;;;7.40;;
3845;SDS011;1938;50.812;7.738;2024-02-15T02:55:58;13.97;;;7.73;;
3845;SDS011;1938;50.812;7.738;2024-02-15T02:58:24;20.43;;;8.23;;
3845;SDS011;1938;50.812;7.738;2024-02-15T03:00:50;17.30;;;7.17;;
3845;SDS011;1938;50.812;7.738;2024-02-15T03:03:16;12.73;;;7.27;;
3845;SDS011;1938;50.812;7.738;2024-02-15T03:05:43;17.40;;;7.07;;
3845;SDS011;1938;50.812;7.738;2024-02-15T03:08:12;13.17;;;7.70;;
3845;SDS011;1938;50.812;7.738;2024-02-15T03:10:38;13.53;;;7.07;;
3845;SDS011;1938;50.812;7.738;2024-02-15T03:13:05;20.70;;;8.00;;
3845;SDS011;1938;50.812;7.738;2024-02-15T03:15:30;23.37;;;7.37;;
3845;SDS011;1938;50.812;7.738;2024-02-15T03:17:58;16.20;;;6.73;;
3845;SDS011;1938;50.812;7.738;2024-02-15T03:20:23;16.40;;;8.20;;
3845;SDS011;1938;50.812;7.738;2024-02-15T03:22:52;19.47;;;7.23;;
3845;SDS011;1938;50.812;7.738;2024-02-15T03:25:25;18.73;;;8.37;;
3845;SDS011;1938;50.812;7.738;2024-02-15T03:27:52;13.73;;;7.03;;
3845;SDS011;1938;50.812;7.738;2024-02-15T03:30:19;12.00;;;6.77;;
3845;SDS011;1938;50.812;7.738;2024-02-15T03:32:47;18.60;;;7.30;;
3845;SDS011;1938;50.812;7.738;2024-02-15T03:35:13;13.70;;;7.30;;
3845;SDS011;1938;50.812;7.738;2024-02-15T03:37:40;20.43;;;7.50;;
3845;SDS011;1938;50.812;7.738;2024-02-15T03:40:06;15.60;;;8.60;;
3845;SDS011;1938;50.812;7.738;2024-02-15T03:42:33;16.00;;;7.70;;
3845;SDS011;1938;50.812;7.738;2024-02-15T03:45:02;14.70;;;7.70;;
3845;SDS011;1938;50.812;7.738;2024-02-15T03:47:33;15.80;;;7.30;;
3845;SDS011;1938;50.812;7.738;2024-02-15T03:50:01;18.13;;;7.50;;
3845;SDS011;1938;50.812;7.738;2024-02-15T03:52:27;18.20;;;7.73;;
3845;SDS011;1938;50.812;7.738;2024-02-15T03:54:54;13.40;;;7.77;;
3845;SDS011;1938;50.812;7.738;2024-02-15T03:57:22;25.33;;;7.67;;
3845;SDS011;1938;50.812;7.738;2024-02-15T03:59:51;15.23;;;8.33;;
3845;SDS011;1938;50.812;7.738;2024-02-15T04:02:21;20.67;;;7.97;;
3845;SDS011;1938;50.812;7.738;2024-02-15T04:04:48;15.00;;;7.73;;
3845;SDS011;1938;50.812;7.738;2024-02-15T04:07:17;14.20;;;8.60;;
3845;SDS011;1938;50.812;7.738;2024-02-15T04:09:43;17.63;;;8.70;;
3845;SDS011;1938;50.812;7.738;2024-02-15T04:12:09;20.80;;;8.97;;
3845;SDS011;1938;50.812;7.738;2024-02-15T04:14:34;11.63;;;7.13;;
3845;SDS011;1938;50.812;7.738;2024-02-15T04:17:00;15.70;;;7.03;;
3845;SDS011;1938;50.812;7.738;2024-02-15T04:19:27;14.30;;;7.37;;
3845;SDS011;1938;50.812;7.738;2024-02-15T04:21:53;19.67;;;7.43;;
3845;SDS011;1938;50.812;7.738;2024-02-15T04:24:20;18.67;;;7.20;;
3845;SDS011;1938;50.812;7.738;2024-02-15T04:26:46;15.30;;;6.53;;
3845;SDS011;1938;50.812;7.738;2024-02-15T04:29:13;14.97;;;7.50;;
3845;SDS011;1938;50.812;7.738;2024-02-15T04:31:40;15.63;;;7.23;;
3845;SDS011;1938;50.812;7.738;2024-02-15T04:34:08;20.20;;;7.10;;
3845;SDS011;1938;50.812;7.738;2024-02-15T04:36:35;16.00;;;7.17;;
3845;SDS011;1938;50.812;7.738;2024-02-15T04:39:01;10.13;;;5.73;;
3845;SDS011;1938;50.812;7.738;2024-02-15T04:41:29;13.97;;;7.67;;
3845;SDS011;1938;50.812;7.738;2024-02-15T04:43:55;21.00;;;6.20;;
3845;SDS011;1938;50.812;7.738;2024-02-15T04:46:21;14.60;;;7.47;;
3845;SDS011;1938;50.812;7.738;2024-02-15T04:48:47;19.43;;;6.97;;
3845;SDS011;1938;50.812;7.738;2024-02-15T04:51:16;14.27;;;7.07;;
3845;SDS011;1938;50.812;7.738;2024-02-15T04:53:42;29.10;;;8.10;;
3845;SDS011;1938;50.812;7.738;2024-02-15T04:56:08;19.40;;;7.03;;
3845;SDS011;1938;50.812;7.738;2024-02-15T04:58:40;18.17;;;7.40;;
3845;SDS011;1938;50.812;7.738;2024-02-15T05:01:16;10.10;;;5.90;;
3845;SDS011;1938;50.812;7.738;2024-02-15T05:03:43;22.20;;;7.30;;
3845;SDS011;1938;50.812;7.738;2024-02-15T05:06:08;12.60;;;6.47;;
3845;SDS011;1938;50.812;7.738;2024-02-15T05:08:35;18.00;;;5.97;;
3845;SDS011;1938;50.812;7.738;2024-02-15T05:11:03;18.00;;;6.27;;
3845;SDS011;1938;50.812;7.738;2024-02-15T05:13:30;20.90;;;6.00;;
3845;SDS011;1938;50.812;7.738;2024-02-15T05:15:56;24.97;;;7.97;;
3845;SDS011;1938;50.812;7.738;2024-02-15T05:18:22;14.27;;;6.20;;
3845;SDS011;1938;50.812;7.738;2024-02-15T05:20:47;13.77;;;6.33;;
3845;SDS011;1938;50.812;7.738;2024-02-15T05:23:13;17.23;;;5.57;;
3845;SDS011;1938;50.812;7.738;2024-02-15T05:25:39;10.00;;;6.27;;
3845;SDS011;1938;50.812;7.738;2024-02-15T05:28:06;12.97;;;6.43;;
3845;SDS011;1938;50.812;7.738;2024-02-15T05:30:33;17.30;;;6.73;;
3845;SDS011;1938;50.812;7.738;2024-02-15T05:32:59;13.50;;;5.80;;
3845;SDS011;1938;50.812;7.738;2024-02-15T05:35:25;14.00;;;7.43;;
3845;SDS011;1938;50.812;7.738;2024-02-15T05:37:52;10.23;;;6.53;;
3845;SDS011;1938;50.812;7.738;2024-02-15T05:40:21;15.37;;;5.07;;
3845;SDS011;1938;50.812;7.738;2024-02-15T05:42:47;14.60;;;7.00;;
3845;SDS011;1938;50.812;7.738;2024-02-15T05:47:52;14.13;;;6.10;;
3845;SDS011;1938;50.812;7.738;2024-02-15T05:50:18;14.47;;;7.00;;
3845;SDS011;1938;50.812;7.738;2024-02-15T05:52:47;12.53;;;6.23;;
3845;SDS011;1938;50.812;7.738;2024-02-15T05:55:12;16.30;;;7.70;;
3845;SDS011;1938;50.812;7.738;2024-02-15T05:57:42;15.97;;;7.67;;
3845;SDS011;1938;50.812;7.738;2024-02-15T06:00:08;21.80;;;6.43;;
3845;SDS011;1938;50.812;7.738;2024-02-15T06:02:35;15.50;;;6.40;;
3845;SDS011;1938;50.812;7.738;2024-02-15T06:05:00;13.77;;;7.23;;
3845;SDS011;1938;50.812;7.738;2024-02-15T06:07:27;16.47;;;6.03;;
3845;SDS011;1938;50.812;7.738;2024-02-15T06:09:53;11.07;;;6.33;;
3845;SDS011;1938;50.812;7.738;2024-02-15T06:12:19;18.73;;;6.70;;
3845;SDS011;1938;50.812;7.738;2024-02-15T06:14:45;13.57;;;6.50;;
3845;SDS011;1938;50.812;7.738;2024-02-15T06:17:11;29.03;;;6.60;;
3845;SDS011;1938;50.812;7.738;2024-02-15T06:19:37;13.23;;;6.70;;
3845;SDS011;1938;50.812;7.738;2024-02-15T06:22:03;14.37;;;6.70;;
3845;SDS011;1938;50.812;7.738;2024-02-15T06:24:29;21.23;;;6.80;;
3845;SDS011;1938;50.812;7.738;2024-02-15T06:26:56;11.37;;;6.20;;
3845;SDS011;1938;50.812;7.738;2024-02-15T06:29:25;10.80;;;5.90;;
3845;SDS011;1938;50.812;7.738;2024-02-15T06:32:09;12.87;;;5.50;;
3845;SDS011;1938;50.812;7.738;2024-02-15T06:34:53;14.07;;;6.17;;
3845;SDS011;1938;50.812;7.738;2024-02-15T06:37:37;10.33;;;5.20;;
3845;SDS011;1938;50.812;7.738;2024-02-15T06:40:23;17.50;;;7.00;;
3845;SDS011;1938;50.812;7.738;2024-02-15T06:42:49;14.70;;;4.97;;
3845;SDS011;1938;50.812;7.738;2024-02-15T06:45:49;16.30;;;6.70;;
3845;SDS011;1938;50.812;7.738;2024-02-15T06:48:16;33.53;;;18.33;;
3845;SDS011;1938;50.812;7.738;2024-02-15T06:50:41;118.03;;;44.00;;
3845;SDS011;1938;50.812;7.738;2024-02-15T06:53:07;22.30;;;7.13;;
3845;SDS011;1938;50.812;7.738;2024-02-15T06:55:34;14.00;;;7.07;;
3845;SDS011;1938;50.812;7.738;2024-02-15T06:58:04;14.37;;;6.87;;
3845;SDS011;1938;50.812;7.738;2024-02-15T07:00:30;12.77;;;7.60;;
3845;SDS011;1938;50.812;7.738;2024-02-15T07:02:58;13.23;;;5.80;;
3845;SDS011;1938;50.812;7.738;2024-02-15T07:05:24;23.80;;;6.23;;
3845;SDS011;1938;50.812;7.738;2024-02-15T07:07:53;9.83;;;6.20;;
3845;SDS011;1938;50.812;7.738;2024-02-15T07:10:23;16.07;;;6.00;;
3845;SDS011;1938;50.812;7.738;2024-02-15T07:12:49;18.10;;;5.80;;
3845;SDS011;1938;50.812;7.738;2024-02-15T07:15:17;21.63;;;5.60;;
3845;SDS011;1938;50.812;7.738;2024-02-15T07:17:43;10.20;;;4.60;;
3845;SDS011;1938;50.812;7.738;2024-02-15T07:20:13;12.97;;;4.77;;
3845;SDS011;1938;50.812;7.738;2024-02-15T07:22:42;18.17;;;4.90;;
3845;SDS011;1938;50.812;7.738;2024-02-15T07:25:10;12.60;;;4.67;;
3845;SDS011;1938;50.812;7.738;2024-02-15T07:27:36;9.97;;;4.33;;
3845;SDS011;1938;50.812;7.738;2024-02-15T07:30:02;11.27;;;4.40;;
3845;SDS011;1938;50.812;7.738;2024-02-15T07:32:30;8.80;;;3.77;;
3845;SDS011;1938;50.812;7.738;2024-02-15T07:34:57;10.13;;;4.50;;
3845;SDS011;1938;50.812;7.738;2024-02-15T07:37:22;10.77;;;4.57;;
3845;SDS011;1938;50.812;7.738;2024-02-15T07:39:51;12.70;;;4.97;;
3845;SDS011;1938;50.812;7.738;2024-02-15T07:42:17;6.90;;;3.83;;
3845;SDS011;1938;50.812;7.738;2024-02-15T07:44:43;12.13;;;3.90;;
3845;SDS011;1938;50.812;7.738;2024-02-15T07:47:09;10.00;;;3.67;;
3845;SDS011;1938;50.812;7.738;2024-02-15T07:49:35;8.30;;;3.17;;
3845;SDS011;1938;50.812;7.738;2024-02-15T07:52:01;7.80;;;3.13;;
3845;SDS011;1938;50.812;7.738;2024-02-15T07:54:29;9.80;;;4.00;;
3845;SDS011;1938;50.812;7.738;2024-02-15T07:56:58;12.00;;;3.53;;
3845;SDS011;1938;50.812;7.738;2024-02-15T07:59:24;14.53;;;3.67;;
3845;SDS011;1938;50.812;7.738;2024-02-15T08:01:49;6.33;;;3.40;;
3845;SDS011;1938;50.812;7.738;2024-02-15T08:04:15;11.27;;;3.00;;
3845;SDS011;1938;50.812;7.738;2024-02-15T08:06:42;12.80;;;3.20;;
3845;SDS011;1938;50.812;7.738;2024-02-15T08:09:09;7.80;;;2.80;;
3845;SDS011;1938;50.812;7.738;2024-02-15T08:11:39;7.97;;;2.63;;
3845;SDS011;1938;50.812;7.738;2024-02-15T08:14:05;12.43;;;2.80;;
3845;SDS011;1938;50.812;7.738;2024-02-15T08:16:33;11.40;;;3.10;;
3845;SDS011;1938;50.812;7.738;2024-02-15T08:18:59;7.20;;;3.23;;
3845;SDS011;1938;50.812;7.738;2024-02-15T08:21:26;11.73;;;3.37;;
3845;SDS011;1938;50.812;7.738;2024-02-15T08:23:58;22.27;;;3.30;;
3845;SDS011;1938;50.812;7.738;2024-02-15T08:26:24;14.47;;;3.60;;
3845;SDS011;1938;50.812;7.738;2024-02-15T08:28:50;7.03;;;2.43;;
3845;SDS011;1938;50.812;7.738;2024-02-15T08:31:16;10.87;;;3.60;;
3845;SDS011;1938;50.812;7.738;2024-02-15T08:33:41;17.10;;;3.33;;
3845;SDS011;1938;50.812;7.738;2024-02-15T08:36:09;7.77;;;3.17;;
3845;SDS011;1938;50.812;7.738;2024-02-15T08:38:35;7.23;;;2.90;;
3845;SDS011;1938;50.812;7.738;2024-02-15T08:41:03;8.30;;;3.37;;
3845;SDS011;1938;50.812;7.738;2024-02-15T08:43:29;15.40;;;3.73;;
3845;SDS011;1938;50.812;7.738;2024-02-15T08:45:57;11.60;;;3.53;;
3845;SDS011;1938;50.812;7.738;2024-02-15T08:48:23;12.37;;;3.83;;
3845;SDS011;1938;50.812;7.738;2024-02-15T08:50:49;19.97;;;4.10;;
3845;SDS011;1938;50.812;7.738;2024-02-15T08:53:16;8.43;;;3.30;;
3845;SDS011;1938;50.812;7.738;2024-02-15T08:55:44;9.00;;;4.10;;
3845;SDS011;1938;50.812;7.738;2024-02-15T08:58:13;9.53;;;3.50;;
3845;SDS011;1938;50.812;7.738;2024-02-15T09:00:39;21.53;;;6.37;;
3845;SDS011;1938;50.812;7.738;2024-02-15T09:03:09;8.43;;;3.00;;
3845;SDS011;1938;50.812;7.738;2024-02-15T09:05:36;7.40;;;2.80;;
3845;SDS011;1938;50.812;7.738;2024-02-15T09:08:01;7.33;;;2.83;;
3845;SDS011;1938;50.812;7.738;2024-02-15T09:10:29;10.43;;;2.67;;
3845;SDS011;1938;50.812;7.738;2024-02-15T09:12:55;9.73;;;2.87;;
3845;SDS011;1938;50.812;7.738;2024-02-15T09:15:21;11.30;;;2.63;;
3845;SDS011;1938;50.812;7.738;2024-02-15T09:17:47;11.97;;;3.90;;
3845;SDS011;1938;50.812;7.738;2024-02-15T09:20:13;10.17;;;3.00;;
3845;SDS011;1938;50.812;7.738;2024-02-15T09:22:42;6.60;;;2.87;;
3845;SDS011;1938;50.812;7.738;2024-02-15T09:25:11;9.00;;;2.40;;
3845;SDS011;1938;50.812;7.738;2024-02-15T09:27:38;9.60;;;2.40;;
3845;SDS011;1938;50.812;7.738;2024-02-15T09:30:04;5.83;;;2.07;;
3845;SDS011;1938;50.812;7.738;2024-02-15T09:32:34;8.47;;;3.13;;
3845;SDS011;1938;50.812;7.738;2024-02-15T09:35:00;10.63;;;2.30;;
3845;SDS011;1938;50.812;7.738;2024-02-15T09:37:25;7.13;;;2.67;;
3845;SDS011;1938;50.812;7.738;2024-02-15T09:39:53;7.20;;;1.83;;
3845;SDS011;1938;50.812;7.738;2024-02-15T09:42:20;9.03;;;2.03;;
3845;SDS011;1938;50.812;7.738;2024-02-15T09:44:46;5.77;;;2.03;;
3845;SDS011;1938;50.812;7.738;2024-02-15T09:47:12;11.33;;;1.97;;
3845;SDS011;1938;50.812;7.738;2024-02-15T09:49:40;4.57;;;1.87;;
3845;SDS011;1938;50.812;7.738;2024-02-15T09:52:06;7.87;;;2.07;;
3845;SDS011;1938;50.812;7.738;2024-02-15T09:54:40;8.40;;;1.70;;
3845;SDS011;1938;50.812;7.738;2024-02-15T09:57:08;5.70;;;1.40;;
3845;SDS011;1938;50.812;7.738;2024-02-15T09:59:35;8.13;;;1.83;;
3845;SDS011;1938;50.812;7.738;2024-02-15T10:02:01;10.67;;;1.73;;
3845;SDS011;1938;50.812;7.738;2024-02-15T10:04:27;4.30;;;1.77;;
3845;SDS011;1938;50.812;7.738;2024-02-15T10:06:53;8.80;;;2.57;;
3845;SDS011;1938;50.812;7.738;2024-02-15T10:09:28;8.90;;;1.93;;
3845;SDS011;1938;50.812;7.738;2024-02-15T10:11:58;8.17;;;2.00;;
3845;SDS011;1938;50.812;7.738;2024-02-15T10:14:25;5.97;;;1.83;;
3845;SDS011;1938;50.812;7.738;2024-02-15T10:16:52;5.83;;;2.13;;
3845;SDS011;1938;50.812;7.738;2024-02-15T10:19:21;8.67;;;2.13;;
3845;SDS011;1938;50.812;7.738;2024-02-15T10:21:53;10.03;;;1.90;;
3845;SDS011;1938;50.812;7.738;2024-02-15T10:24:23;9.17;;;1.50;;
3845;SDS011;1938;50.812;7.738;2024-02-15T10:26:59;5.33;;;1.30;;
3845;SDS011;1938;50.812;7.738;2024-02-15T10:29:29;12.87;;;2.37;;
3845;SDS011;1938;50.812;7.738;2024-02-15T10:31:55;6.60;;;1.90;;
3845;SDS011;1938;50.812;7.738;2024-02-15T10:34:23;5.17;;;1.83;;
3845;SDS011;1938;50.812;7.738;2024-02-15T10:36:52;8.53;;;1.90;;
3845;SDS011;1938;50.812;7.738;2024-02-15T10:39:34;8.60;;;2.37;;
3845;SDS011;1938;50.812;7.738;2024-02-15T10:42:00;6.30;;;1.30;;
3845;SDS011;1938;50.812;7.738;2024-02-15T10:44:26;6.07;;;1.70;;
3845;SDS011;1938;50.812;7.738;2024-02-15T10:46:52;4.20;;;1.37;;
3845;SDS011;1938;50.812;7.738;2024-02-15T10:49:21;6.20;;;1.53;;
3845;SDS011;1938;50.812;7.738;2024-02-15T10:51:50;6.13;;;1.70;;
3845;SDS011;1938;50.812;7.738;2024-02-15T10:54:27;5.80;;;1.80;;
3845;SDS011;1938;50.812;7.738;2024-02-15T10:57:14;5.20;;;1.70;;
3845;SDS011;1938;50.812;7.738;2024-02-15T10:59:45;5.07;;;1.40;;
3845;SDS011;1938;50.812;7.738;2024-02-15T11:02:23;5.00;;;1.30;;
3845;SDS011;1938;50.812;7.738;2024-02-15T11:05:03;10.60;;;2.30;;
3845;SDS011;1938;50.812;7.738;2024-02-15T11:07:35;7.23;;;1.70;;
3845;SDS011;1938;50.812;7.738;2024-02-15T11:10:02;6.40;;;1.83;;
3845;SDS011;1938;50.812;7.738;2024-02-15T11:12:33;4.43;;;1.40;;
3845;SDS011;1938;50.812;7.738;2024-02-15T11:15:00;5.70;;;1.63;;
3845;SDS011;1938;50.812;7.738;2024-02-15T11:20:10;6.73;;;1.40;;
3845;SDS011;1938;50.812;7.738;2024-02-15T11:22:57;6.30;;;1.57;;
3845;SDS011;1938;50.812;7.738;2024-02-15T11:30:51;6.30;;;1.77;;
3845;SDS011;1938;50.812;7.738;2024-02-15T11:33:50;6.67;;;1.60;;
3845;SDS011;1938;50.812;7.738;2024-02-15T11:36:09;5.30;;;1.40;;
3845;SDS011;1938;50.812;7.738;2024-02-15T11:38:36;5.47;;;1.27;;
3845;SDS011;1938;50.812;7.738;2024-02-15T11:41:06;4.90;;;1.70;;
3845;SDS011;1938;50.812;7.738;2024-02-15T11:46:14;6.27;;;1.60;;
3845;SDS011;1938;50.812;7.738;2024-02-15T11:48:53;3.80;;;1.13;;
3845;SDS011;1938;50.812;7.738;2024-02-15T11:51:31;5.40;;;1.50;;
3845;SDS011;1938;50.812;7.738;2024-02-15T11:54:08;6.27;;;1.77;;
3845;SDS011;1938;50.812;7.738;2024-02-15T11:59:09;5.40;;;1.50;;
3845;SDS011;1938;50.812;7.738;2024-02-15T12:01:43;4.20;;;1.37;;
3845;SDS011;1938;50.812;7.738;2024-02-15T12:04:28;5.60;;;1.60;;
3845;SDS011;1938;50.812;7.738;2024-02-15T12:07:16;6.50;;;1.80;;
3845;SDS011;1938;50.812;7.738;2024-02-15T12:10:00;4.50;;;1.53;;
3845;SDS011;1938;50.812;7.738;2024-02-15T12:12:51;7.10;;;1.70;;
3845;SDS011;1938;50.812;7.738;2024-02-15T12:15:35;8.90;;;1.90;;
3845;SDS011;1938;50.812;7.738;2024-02-15T12:18:19;4.00;;;1.50;;
3845;SDS011;1938;50.812;7.738;2024-02-15T12:21:03;6.53;;;1.50;;
3845;SDS011;1938;50.812;7.738;2024-02-15T12:23:30;15.40;;;1.80;;
3845;SDS011;1938;50.812;7.738;2024-02-15T12:25:59;10.40;;;1.70;;
3845;SDS011;1938;50.812;7.738;2024-02-15T12:28:26;7.10;;;2.00;;
3845;SDS011;1938;50.812;7.738;2024-02-15T12:30:55;9.00;;;1.87;;
3845;SDS011;1938;50.812;7.738;2024-02-15T12:33:22;6.63;;;2.07;;
3845;SDS011;1938;50.812;7.738;2024-02-15T12:35:47;5.00;;;1.50;;
3845;SDS011;1938;50.812;7.738;2024-02-15T12:38:15;4.80;;;1.50;;
3845;SDS011;1938;50.812;7.738;2024-02-15T12:40:42;4.90;;;1.87;;
3845;SDS011;1938;50.812;7.738;2024-02-15T12:43:11;5.50;;;1.33;;
3845;SDS011;1938;50.812;7.738;2024-02-15T12:45:38;6.67;;;1.43;;
3845;SDS011;1938;50.812;7.738;2024-02-15T12:48:06;7.53;;;1.67;;
3845;SDS011;1938;50.812;7.738;2024-02-15T12:50:34;9.23;;;1.50;;
3845;SDS011;1938;50.812;7.738;2024-02-15T12:53:00;9.13;;;2.63;;
3845;SDS011;1938;50.812;7.738;2024-02-15T12:55:31;6.07;;;1.30;;
3845;SDS011;1938;50.812;7.738;2024-02-15T12:57:59;21.93;;;13.10;;
3845;SDS011;1938;50.812;7.738;2024-02-15T13:00:28;63.87;;;36.03;;
3845;SDS011;1938;50.812;7.738;2024-02-15T13:03:01;8.47;;;3.80;;
3845;SDS011;1938;50.812;7.738;2024-02-15T13:05:28;6.40;;;2.33;;
3845;SDS011;1938;50.812;7.738;2024-02-15T13:07:58;8.50;;;1.70;;
3845;SDS011;1938;50.812;7.738;2024-02-15T13:10:24;6.77;;;1.73;;
3845;SDS011;1938;50.812;7.738;2024-02-15T13:12:52;5.80;;;1.43;;
3845;SDS011;1938;50.812;7.738;2024-02-15T13:15:18;4.40;;;1.67;;
3845;SDS011;1938;50.812;7.738;2024-02-15T13:17:46;4.77;;;1.10;;
3845;SDS011;1938;50.812;7.738;2024-02-15T13:20:21;9.10;;;1.37;;
3845;SDS011;1938;50.812;7.738;2024-02-15T13:22:57;5.27;;;1.40;;
3845;SDS011;1938;50.812;7.738;2024-02-15T13:25:27;6.53;;;1.40;;
3845;SDS011;1938;50.812;7.738;2024-02-15T13:27:56;6.03;;;1.80;;
3845;SDS011;1938;50.812;7.738;2024-02-15T13:30:24;4.90;;;1.40;;
3845;SDS011;1938;50.812;7.738;2024-02-15T13:32:52;5.73;;;1.40;;
3845;SDS011;1938;50.812;7.738;2024-02-15T13:35:22;5.43;;;1.40;;
3845;SDS011;1938;50.812;7.738;2024-02-15T13:37:55;3.70;;;1.33;;
3845;SDS011;1938;50.812;7.738;2024-02-15T13:40:23;3.80;;;1.30;;
3845;SDS011;1938;50.812;7.738;2024-02-15T13:42:50;5.83;;;1.33;;
3845;SDS011;1938;50.812;7.738;2024-02-15T13:45:28;5.10;;;1.73;;
3845;SDS011;1938;50.812;7.738;2024-02-15T13:47:56;3.83;;;1.47;;
3845;SDS011;1938;50.812;7.738;2024-02-15T13:50:22;4.80;;;1.37;;
3845;SDS011;1938;50.812;7.738;2024-02-15T13:52:48;5.30;;;1.50;;
3845;SDS011;1938;50.812;7.738;2024-02-15T13:55:15;5.03;;;1.70;;
3845;SDS011;1938;50.812;7.738;2024-02-15T13:57:42;3.83;;;1.80;;
3845;SDS011;1938;50.812;7.738;2024-02-15T14:00:10;5.40;;;1.73;;
3845;SDS011;1938;50.812;7.738;2024-02-15T14:02:46;5.53;;;2.03;;
3845;SDS011;1938;50.812;7.738;2024-02-15T14:05:19;8.50;;;2.27;;
3845;SDS011;1938;50.812;7.738;2024-02-15T14:07:52;6.33;;;2.37;;
3845;SDS011;1938;50.812;7.738;2024-02-15T14:10:20;6.83;;;2.43;;
3845;SDS011;1938;50.812;7.738;2024-02-15T14:12:50;8.10;;;1.97;;
3845;SDS011;1938;50.812;7.738;2024-02-15T14:15:34;5.53;;;1.60;;
3845;SDS011;1938;50.812;7.738;2024-02-15T14:18:03;3.87;;;1.73;;
3845;SDS011;1938;50.812;7.738;2024-02-15T14:20:38;5.60;;;1.47;;
3845;SDS011;1938;50.812;7.738;2024-02-15T14:23:04;7.13;;;2.50;;
3845;SDS011;1938;50.812;7.738;2024-02-15T14:25:38;15.00;;;4.90;;
3845;SDS011;1938;50.812;7.738;2024-02-15T14:28:04;8.83;;;2.23;;
3845;SDS011;1938;50.812;7.738;2024-02-15T14:30:32;7.67;;;1.80;;
3845;SDS011;1938;50.812;7.738;2024-02-15T14:33:17;7.57;;;1.80;;
3845;SDS011;1938;50.812;7.738;2024-02-15T14:35:44;8.97;;;2.00;;
3845;SDS011;1938;50.812;7.738;2024-02-15T14:38:10;5.50;;;1.93;;
3845;SDS011;1938;50.812;7.738;2024-02-15T14:40:40;3.33;;;1.43;;
3845;SDS011;1938;50.812;7.738;2024-02-15T14:43:08;6.30;;;1.60;;
3845;SDS011;1938;50.812;7.738;2024-02-15T14:45:36;10.90;;;2.10;;
3845;SDS011;1938;50.812;7.738;2024-02-15T14:48:02;5.00;;;1.63;;
3845;SDS011;1938;50.812;7.738;2024-02-15T14:50:28;8.83;;;1.77;;
3845;SDS011;1938;50.812;7.738;2024-02-15T14:52:54;6.30;;;2.07;;
3845;SDS011;1938;50.812;7.738;2024-02-15T14:55:20;6.77;;;1.63;;
3845;SDS011;1938;50.812;7.738;2024-02-15T14:57:46;9.50;;;1.73;;
3845;SDS011;1938;50.812;7.738;2024-02-15T15:00:12;3.50;;;1.30;;
3845;SDS011;1938;50.812;7.738;2024-02-15T15:02:46;4.57;;;1.83;;
3845;SDS011;1938;50.812;7.738;2024-02-15T15:05:13;6.97;;;1.40;;
3845;SDS011;1938;50.812;7.738;2024-02-15T15:07:58;11.93;;;1.50;;
3845;SDS011;1938;50.812;7.738;2024-02-15T15:10:43;4.30;;;1.30;;
3845;SDS011;1938;50.812;7.738;2024-02-15T15:13:29;5.60;;;1.10;;
3845;SDS011;1938;50.812;7.738;2024-02-15T15:15:54;5.77;;;2.03;;
3845;SDS011;1938;50.812;7.738;2024-02-15T15:18:20;5.63;;;1.70;;
3845;SDS011;1938;50.812;7.738;2024-02-15T15:20:46;5.17;;;1.30;;
3845;SDS011;1938;50.812;7.738;2024-02-15T15:23:12;10.20;;;4.30;;
3845;SDS011;1938;50.812;7.738;2024-02-15T15:25:41;5.33;;;1.70;;
3845;SDS011;1938;50.812;7.738;2024-02-15T15:28:07;7.83;;;1.53;;
3845;SDS011;1938;50.812;7.738;2024-02-15T15:30:32;4.70;;;1.07;;